sensor_id;sensor_type;location;lat;lon;timestamp;P1;durP1;ratioP1;P2;durP2;ratioP2
2972;SDS011;1496;51.404;7.232;2023-09-07T00:00:13;4.40;;;3.43;;
2972;SDS011;1496;51.404;7.232;2023-09-07T00:02:40;5.50;;;3.97;;
2972;SDS011;1496;51.404;7.232;2023-09-07T00:05:06;5.37;;;3.40;;
2972;SDS011;1496;51.404;7.232;2023-09-07T00:07:32;4.63;;;3.90;;
2972;SDS011;1496;51.404;7.232;2023-09-07T00:09:58;4.93;;;4.30;;
2972;SDS011;1496;51.404;7.232;2023-09-07T00:12:25;9.30;;;4.40;;
2972;SDS011;1496;51.404;7.232;2023-09-07T00:14:52;4.20;;;3.73;;
2972;SDS011;1496;51.404;7.232;2023-09-07T00:17:19;5.57;;;3.60;;
2972;SDS011;1496;51.404;7.232;2023-09-07T00:19:45;8.30;;;4.20;;
2972;SDS011;1496;51.404;7.232;2023-09-07T00:22:14;4.30;;;3.80;;
2972;SDS011;1496;51.404;7.232;2023-09-07T00:24:40;5.23;;;3.60;;
2972;SDS011;1496;51.404;7.232;2023-09-07T00:27:05;4.40;;;4.00;;
2972;SDS011;1496;51.404;7.232;2023-09-07T00:29:33;5.77;;;3.93;;
2972;SDS011;1496;51.404;7.232;2023-09-07T00:32:00;4.60;;;3.60;;
2972;SDS011;1496;51.404;7.232;2023-09-07T00:34:26;5.80;;;4.30;;
2972;SDS011;1496;51.404;7.232;2023-09-07T00:36:52;4.20;;;3.40;;
2972;SDS011;1496;51.404;7.232;2023-09-07T00:39:18;6.20;;;3.40;;
2972;SDS011;1496;51.404;7.232;2023-09-07T00:41:43;4.40;;;3.53;;
2972;SDS011;1496;51.404;7.232;2023-09-07T00:44:12;7.57;;;3.57;;
2972;SDS011;1496;51.404;7.232;2023-09-07T00:46:38;4.60;;;3.37;;
2972;SDS011;1496;51.404;7.232;2023-09-07T00:49:04;3.97;;;3.60;;
2972;SDS011;1496;51.404;7.232;2023-09-07T00:51:30;8.60;;;3.63;;
2972;SDS011;1496;51.404;7.232;2023-09-07T00:53:57;5.33;;;4.23;;
2972;SDS011;1496;51.404;7.232;2023-09-07T00:56:25;5.10;;;4.27;;
2972;SDS011;1496;51.404;7.232;2023-09-07T00:58:52;6.10;;;4.10;;
2972;SDS011;1496;51.404;7.232;2023-09-07T01:01:20;3.83;;;3.10;;
2972;SDS011;1496;51.404;7.232;2023-09-07T01:03:48;4.30;;;3.60;;
2972;SDS011;1496;51.404;7.232;2023-09-07T01:06:25;4.67;;;3.93;;
2972;SDS011;1496;51.404;7.232;2023-09-07T01:09:10;4.97;;;3.50;;
2972;SDS011;1496;51.404;7.232;2023-09-07T01:11:40;6.67;;;4.20;;
2972;SDS011;1496;51.404;7.232;2023-09-07T01:14:05;5.97;;;4.40;;
2972;SDS011;1496;51.404;7.232;2023-09-07T01:16:31;4.57;;;3.53;;
2972;SDS011;1496;51.404;7.232;2023-09-07T01:19:02;5.10;;;4.23;;
2972;SDS011;1496;51.404;7.232;2023-09-07T01:21:36;4.60;;;3.80;;
2972;SDS011;1496;51.404;7.232;2023-09-07T01:24:06;4.30;;;3.57;;
2972;SDS011;1496;51.404;7.232;2023-09-07T01:26:34;6.20;;;3.80;;
2972;SDS011;1496;51.404;7.232;2023-09-07T01:29:00;4.90;;;3.30;;
2972;SDS011;1496;51.404;7.232;2023-09-07T01:31:27;4.80;;;3.47;;
2972;SDS011;1496;51.404;7.232;2023-09-07T01:33:53;4.37;;;3.47;;
2972;SDS011;1496;51.404;7.232;2023-09-07T01:36:19;5.10;;;4.40;;
2972;SDS011;1496;51.404;7.232;2023-09-07T01:38:44;6.27;;;4.07;;
2972;SDS011;1496;51.404;7.232;2023-09-07T01:41:10;5.13;;;3.33;;
2972;SDS011;1496;51.404;7.232;2023-09-07T01:43:37;5.50;;;4.00;;
2972;SDS011;1496;51.404;7.232;2023-09-07T01:46:02;5.40;;;3.90;;
2972;SDS011;1496;51.404;7.232;2023-09-07T01:48:28;6.80;;;4.50;;
2972;SDS011;1496;51.404;7.232;2023-09-07T01:50:54;5.47;;;3.70;;
2972;SDS011;1496;51.404;7.232;2023-09-07T01:53:20;8.93;;;4.67;;
2972;SDS011;1496;51.404;7.232;2023-09-07T01:55:46;5.03;;;4.53;;
2972;SDS011;1496;51.404;7.232;2023-09-07T01:58:13;5.97;;;4.40;;
2972;SDS011;1496;51.404;7.232;2023-09-07T02:00:38;6.70;;;4.13;;
2972;SDS011;1496;51.404;7.232;2023-09-07T02:03:05;4.50;;;3.93;;
2972;SDS011;1496;51.404;7.232;2023-09-07T02:05:31;7.90;;;4.33;;
2972;SDS011;1496;51.404;7.232;2023-09-07T02:08:03;4.50;;;3.90;;
2972;SDS011;1496;51.404;7.232;2023-09-07T02:10:29;4.83;;;3.90;;
2972;SDS011;1496;51.404;7.232;2023-09-07T02:12:55;6.90;;;4.63;;
2972;SDS011;1496;51.404;7.232;2023-09-07T02:15:23;5.60;;;4.60;;
2972;SDS011;1496;51.404;7.232;2023-09-07T02:17:49;6.13;;;4.60;;
2972;SDS011;1496;51.404;7.232;2023-09-07T02:20:19;4.83;;;4.10;;
2972;SDS011;1496;51.404;7.232;2023-09-07T02:22:45;5.57;;;3.87;;
2972;SDS011;1496;51.404;7.232;2023-09-07T02:25:11;4.30;;;3.43;;
2972;SDS011;1496;51.404;7.232;2023-09-07T02:27:37;5.70;;;4.03;;
2972;SDS011;1496;51.404;7.232;2023-09-07T02:30:04;5.70;;;4.60;;
2972;SDS011;1496;51.404;7.232;2023-09-07T02:32:33;5.63;;;4.67;;
2972;SDS011;1496;51.404;7.232;2023-09-07T02:34:59;6.10;;;4.40;;
2972;SDS011;1496;51.404;7.232;2023-09-07T02:37:24;8.07;;;4.50;;
2972;SDS011;1496;51.404;7.232;2023-09-07T02:39:51;9.30;;;4.20;;
2972;SDS011;1496;51.404;7.232;2023-09-07T02:42:16;5.43;;;4.60;;
2972;SDS011;1496;51.404;7.232;2023-09-07T02:44:42;5.67;;;4.00;;
2972;SDS011;1496;51.404;7.232;2023-09-07T02:47:07;6.87;;;4.30;;
2972;SDS011;1496;51.404;7.232;2023-09-07T02:49:34;9.23;;;4.30;;
2972;SDS011;1496;51.404;7.232;2023-09-07T02:51:59;7.17;;;4.70;;
2972;SDS011;1496;51.404;7.232;2023-09-07T02:54:25;6.17;;;4.43;;
2972;SDS011;1496;51.404;7.232;2023-09-07T02:56:51;7.07;;;5.17;;
2972;SDS011;1496;51.404;7.232;2023-09-07T02:59:17;10.73;;;4.63;;
2972;SDS011;1496;51.404;7.232;2023-09-07T03:01:43;7.40;;;4.30;;
2972;SDS011;1496;51.404;7.232;2023-09-07T03:04:08;6.43;;;4.43;;
2972;SDS011;1496;51.404;7.232;2023-09-07T03:06:35;6.17;;;4.30;;
2972;SDS011;1496;51.404;7.232;2023-09-07T03:09:01;5.40;;;4.90;;
2972;SDS011;1496;51.404;7.232;2023-09-07T03:11:27;6.23;;;4.90;;
2972;SDS011;1496;51.404;7.232;2023-09-07T03:13:59;5.10;;;4.60;;
2972;SDS011;1496;51.404;7.232;2023-09-07T03:16:24;6.67;;;4.40;;
2972;SDS011;1496;51.404;7.232;2023-09-07T03:18:50;5.00;;;4.33;;
2972;SDS011;1496;51.404;7.232;2023-09-07T03:21:16;6.70;;;4.50;;
2972;SDS011;1496;51.404;7.232;2023-09-07T03:23:42;4.70;;;4.20;;
2972;SDS011;1496;51.404;7.232;2023-09-07T03:26:11;5.13;;;4.60;;
2972;SDS011;1496;51.404;7.232;2023-09-07T03:28:38;4.80;;;3.80;;
2972;SDS011;1496;51.404;7.232;2023-09-07T03:31:03;5.03;;;4.20;;
2972;SDS011;1496;51.404;7.232;2023-09-07T03:33:30;6.20;;;4.30;;
2972;SDS011;1496;51.404;7.232;2023-09-07T03:35:56;8.53;;;4.10;;
2972;SDS011;1496;51.404;7.232;2023-09-07T03:38:24;7.33;;;4.87;;
2972;SDS011;1496;51.404;7.232;2023-09-07T03:40:50;7.40;;;4.90;;
2972;SDS011;1496;51.404;7.232;2023-09-07T03:43:18;4.97;;;4.30;;
2972;SDS011;1496;51.404;7.232;2023-09-07T03:45:44;9.30;;;4.53;;
2972;SDS011;1496;51.404;7.232;2023-09-07T03:48:10;7.43;;;5.20;;
2972;SDS011;1496;51.404;7.232;2023-09-07T03:50:37;5.73;;;4.77;;
2972;SDS011;1496;51.404;7.232;2023-09-07T03:53:03;9.23;;;4.93;;
2972;SDS011;1496;51.404;7.232;2023-09-07T03:55:29;10.83;;;5.23;;
2972;SDS011;1496;51.404;7.232;2023-09-07T03:57:54;6.50;;;5.67;;
2972;SDS011;1496;51.404;7.232;2023-09-07T04:00:20;8.63;;;5.37;;
2972;SDS011;1496;51.404;7.232;2023-09-07T04:02:47;7.23;;;5.53;;
2972;SDS011;1496;51.404;7.232;2023-09-07T04:05:13;7.30;;;5.40;;
2972;SDS011;1496;51.404;7.232;2023-09-07T04:07:39;6.07;;;4.47;;
2972;SDS011;1496;51.404;7.232;2023-09-07T04:10:05;6.30;;;4.93;;
2972;SDS011;1496;51.404;7.232;2023-09-07T04:12:31;6.10;;;4.80;;
2972;SDS011;1496;51.404;7.232;2023-09-07T04:14:58;7.17;;;5.13;;
2972;SDS011;1496;51.404;7.232;2023-09-07T04:17:25;9.17;;;5.27;;
2972;SDS011;1496;51.404;7.232;2023-09-07T04:19:50;6.00;;;5.20;;
2972;SDS011;1496;51.404;7.232;2023-09-07T04:22:16;6.20;;;4.70;;
2972;SDS011;1496;51.404;7.232;2023-09-07T04:24:42;6.73;;;5.57;;
2972;SDS011;1496;51.404;7.232;2023-09-07T04:27:09;7.20;;;5.60;;
2972;SDS011;1496;51.404;7.232;2023-09-07T04:29:35;8.13;;;5.63;;
2972;SDS011;1496;51.404;7.232;2023-09-07T04:32:01;10.77;;;5.80;;
2972;SDS011;1496;51.404;7.232;2023-09-07T04:34:27;7.23;;;5.17;;
2972;SDS011;1496;51.404;7.232;2023-09-07T04:36:53;14.93;;;5.10;;
2972;SDS011;1496;51.404;7.232;2023-09-07T04:39:19;6.70;;;5.20;;
2972;SDS011;1496;51.404;7.232;2023-09-07T04:41:45;8.40;;;5.07;;
2972;SDS011;1496;51.404;7.232;2023-09-07T04:44:10;8.33;;;5.30;;
2972;SDS011;1496;51.404;7.232;2023-09-07T04:46:36;7.70;;;4.53;;
2972;SDS011;1496;51.404;7.232;2023-09-07T04:49:02;6.13;;;4.57;;
2972;SDS011;1496;51.404;7.232;2023-09-07T04:51:27;9.00;;;5.10;;
2972;SDS011;1496;51.404;7.232;2023-09-07T04:53:53;7.40;;;5.73;;
2972;SDS011;1496;51.404;7.232;2023-09-07T04:56:19;7.40;;;4.97;;
2972;SDS011;1496;51.404;7.232;2023-09-07T04:58:45;5.80;;;4.97;;
2972;SDS011;1496;51.404;7.232;2023-09-07T05:01:11;5.50;;;5.00;;
2972;SDS011;1496;51.404;7.232;2023-09-07T05:03:37;7.87;;;5.77;;
2972;SDS011;1496;51.404;7.232;2023-09-07T05:06:06;13.03;;;5.00;;
2972;SDS011;1496;51.404;7.232;2023-09-07T05:08:32;7.07;;;4.40;;
2972;SDS011;1496;51.404;7.232;2023-09-07T05:10:58;7.03;;;6.33;;
2972;SDS011;1496;51.404;7.232;2023-09-07T05:13:25;9.20;;;5.70;;
2972;SDS011;1496;51.404;7.232;2023-09-07T05:15:52;9.37;;;5.10;;
2972;SDS011;1496;51.404;7.232;2023-09-07T05:18:19;9.00;;;5.77;;
2972;SDS011;1496;51.404;7.232;2023-09-07T05:20:46;7.60;;;5.57;;
2972;SDS011;1496;51.404;7.232;2023-09-07T05:23:17;8.63;;;5.50;;
2972;SDS011;1496;51.404;7.232;2023-09-07T05:25:45;5.00;;;4.20;;
2972;SDS011;1496;51.404;7.232;2023-09-07T05:28:15;7.47;;;5.37;;
2972;SDS011;1496;51.404;7.232;2023-09-07T05:30:42;6.27;;;5.00;;
2972;SDS011;1496;51.404;7.232;2023-09-07T05:33:11;5.23;;;4.57;;
2972;SDS011;1496;51.404;7.232;2023-09-07T05:35:39;8.03;;;5.37;;
2972;SDS011;1496;51.404;7.232;2023-09-07T05:38:07;5.57;;;4.77;;
2972;SDS011;1496;51.404;7.232;2023-09-07T05:40:36;6.60;;;5.60;;
2972;SDS011;1496;51.404;7.232;2023-09-07T05:43:03;9.10;;;5.43;;
2972;SDS011;1496;51.404;7.232;2023-09-07T05:45:30;9.03;;;5.63;;
2972;SDS011;1496;51.404;7.232;2023-09-07T05:47:56;8.97;;;5.80;;
2972;SDS011;1496;51.404;7.232;2023-09-07T05:50:22;7.63;;;5.67;;
2972;SDS011;1496;51.404;7.232;2023-09-07T05:52:48;11.80;;;5.90;;
2972;SDS011;1496;51.404;7.232;2023-09-07T05:55:14;6.10;;;5.50;;
2972;SDS011;1496;51.404;7.232;2023-09-07T05:57:40;8.63;;;5.43;;
2972;SDS011;1496;51.404;7.232;2023-09-07T06:00:06;8.03;;;5.60;;
2972;SDS011;1496;51.404;7.232;2023-09-07T06:02:38;9.20;;;6.13;;
2972;SDS011;1496;51.404;7.232;2023-09-07T06:05:06;34.47;;;6.60;;
2972;SDS011;1496;51.404;7.232;2023-09-07T06:07:33;5.70;;;4.37;;
2972;SDS011;1496;51.404;7.232;2023-09-07T06:09:59;9.27;;;5.20;;
2972;SDS011;1496;51.404;7.232;2023-09-07T06:12:25;6.63;;;5.03;;
2972;SDS011;1496;51.404;7.232;2023-09-07T06:14:50;6.80;;;5.37;;
2972;SDS011;1496;51.404;7.232;2023-09-07T06:17:16;13.93;;;4.20;;
2972;SDS011;1496;51.404;7.232;2023-09-07T06:19:43;6.13;;;4.73;;
2972;SDS011;1496;51.404;7.232;2023-09-07T06:22:09;5.53;;;4.33;;
2972;SDS011;1496;51.404;7.232;2023-09-07T06:24:35;11.10;;;6.00;;
2972;SDS011;1496;51.404;7.232;2023-09-07T06:27:00;7.50;;;5.83;;
2972;SDS011;1496;51.404;7.232;2023-09-07T06:29:26;5.73;;;4.43;;
2972;SDS011;1496;51.404;7.232;2023-09-07T06:31:52;6.03;;;4.83;;
2972;SDS011;1496;51.404;7.232;2023-09-07T06:34:19;8.83;;;5.63;;
2972;SDS011;1496;51.404;7.232;2023-09-07T06:36:45;10.50;;;5.37;;
2972;SDS011;1496;51.404;7.232;2023-09-07T06:39:11;7.57;;;5.30;;
2972;SDS011;1496;51.404;7.232;2023-09-07T06:41:37;8.23;;;4.77;;
2972;SDS011;1496;51.404;7.232;2023-09-07T06:44:03;8.60;;;6.03;;
2972;SDS011;1496;51.404;7.232;2023-09-07T06:46:29;6.97;;;5.13;;
2972;SDS011;1496;51.404;7.232;2023-09-07T06:48:55;7.47;;;6.20;;
2972;SDS011;1496;51.404;7.232;2023-09-07T06:51:22;15.73;;;8.13;;
2972;SDS011;1496;51.404;7.232;2023-09-07T06:53:48;7.37;;;6.20;;
2972;SDS011;1496;51.404;7.232;2023-09-07T06:56:15;9.70;;;6.60;;
2972;SDS011;1496;51.404;7.232;2023-09-07T06:58:41;13.13;;;6.57;;
2972;SDS011;1496;51.404;7.232;2023-09-07T07:01:07;10.50;;;6.00;;
2972;SDS011;1496;51.404;7.232;2023-09-07T07:03:33;10.47;;;6.47;;
2972;SDS011;1496;51.404;7.232;2023-09-07T07:06:00;8.50;;;5.63;;
2972;SDS011;1496;51.404;7.232;2023-09-07T07:08:25;9.30;;;6.70;;
2972;SDS011;1496;51.404;7.232;2023-09-07T07:10:51;12.17;;;6.23;;
2972;SDS011;1496;51.404;7.232;2023-09-07T07:13:18;7.30;;;6.03;;
2972;SDS011;1496;51.404;7.232;2023-09-07T07:15:45;8.27;;;6.27;;
2972;SDS011;1496;51.404;7.232;2023-09-07T07:18:11;9.87;;;6.57;;
2972;SDS011;1496;51.404;7.232;2023-09-07T07:20:38;11.40;;;6.37;;
2972;SDS011;1496;51.404;7.232;2023-09-07T07:23:04;8.10;;;6.00;;
2972;SDS011;1496;51.404;7.232;2023-09-07T07:25:33;9.00;;;6.40;;
2972;SDS011;1496;51.404;7.232;2023-09-07T07:28:00;13.20;;;6.07;;
2972;SDS011;1496;51.404;7.232;2023-09-07T07:30:31;7.00;;;5.47;;
2972;SDS011;1496;51.404;7.232;2023-09-07T07:33:05;5.33;;;3.93;;
2972;SDS011;1496;51.404;7.232;2023-09-07T07:35:33;8.67;;;5.00;;
2972;SDS011;1496;51.404;7.232;2023-09-07T07:38:03;9.20;;;6.57;;
2972;SDS011;1496;51.404;7.232;2023-09-07T07:40:30;9.73;;;6.37;;
2972;SDS011;1496;51.404;7.232;2023-09-07T07:42:56;9.60;;;6.00;;
2972;SDS011;1496;51.404;7.232;2023-09-07T07:45:22;8.33;;;6.30;;
2972;SDS011;1496;51.404;7.232;2023-09-07T07:47:49;10.17;;;7.40;;
2972;SDS011;1496;51.404;7.232;2023-09-07T07:50:15;9.80;;;6.07;;
2972;SDS011;1496;51.404;7.232;2023-09-07T07:52:41;10.90;;;6.70;;
2972;SDS011;1496;51.404;7.232;2023-09-07T07:55:07;9.43;;;6.70;;
2972;SDS011;1496;51.404;7.232;2023-09-07T07:57:34;12.53;;;7.30;;
2972;SDS011;1496;51.404;7.232;2023-09-07T07:59:59;10.13;;;7.73;;
2972;SDS011;1496;51.404;7.232;2023-09-07T08:02:26;14.03;;;7.00;;
2972;SDS011;1496;51.404;7.232;2023-09-07T08:04:53;10.93;;;6.60;;
2972;SDS011;1496;51.404;7.232;2023-09-07T08:07:19;12.20;;;7.07;;
2972;SDS011;1496;51.404;7.232;2023-09-07T08:09:45;9.80;;;6.90;;
2972;SDS011;1496;51.404;7.232;2023-09-07T08:12:10;9.30;;;5.80;;
2972;SDS011;1496;51.404;7.232;2023-09-07T08:14:36;8.20;;;5.03;;
2972;SDS011;1496;51.404;7.232;2023-09-07T08:17:03;9.70;;;5.43;;
2972;SDS011;1496;51.404;7.232;2023-09-07T08:19:29;8.47;;;5.07;;
2972;SDS011;1496;51.404;7.232;2023-09-07T08:21:55;6.03;;;4.43;;
2972;SDS011;1496;51.404;7.232;2023-09-07T08:24:23;9.43;;;6.37;;
2972;SDS011;1496;51.404;7.232;2023-09-07T08:26:48;10.43;;;5.17;;
2972;SDS011;1496;51.404;7.232;2023-09-07T08:29:16;11.67;;;5.63;;
2972;SDS011;1496;51.404;7.232;2023-09-07T08:31:45;10.93;;;5.13;;
2972;SDS011;1496;51.404;7.232;2023-09-07T08:34:13;10.53;;;5.90;;
2972;SDS011;1496;51.404;7.232;2023-09-07T08:36:40;8.90;;;5.23;;
2972;SDS011;1496;51.404;7.232;2023-09-07T08:39:06;9.43;;;5.10;;
2972;SDS011;1496;51.404;7.232;2023-09-07T08:41:38;9.20;;;5.80;;
2972;SDS011;1496;51.404;7.232;2023-09-07T08:44:15;6.47;;;5.30;;
2972;SDS011;1496;51.404;7.232;2023-09-07T08:46:42;9.57;;;5.07;;
2972;SDS011;1496;51.404;7.232;2023-09-07T08:49:09;7.50;;;5.63;;
2972;SDS011;1496;51.404;7.232;2023-09-07T08:51:36;7.83;;;4.47;;
2972;SDS011;1496;51.404;7.232;2023-09-07T08:54:04;7.30;;;4.97;;
2972;SDS011;1496;51.404;7.232;2023-09-07T08:56:30;9.37;;;4.83;;
2972;SDS011;1496;51.404;7.232;2023-09-07T08:58:56;8.90;;;4.83;;
2972;SDS011;1496;51.404;7.232;2023-09-07T09:01:22;7.80;;;4.30;;
2972;SDS011;1496;51.404;7.232;2023-09-07T09:03:48;6.93;;;4.77;;
2972;SDS011;1496;51.404;7.232;2023-09-07T09:06:18;13.17;;;4.43;;
2972;SDS011;1496;51.404;7.232;2023-09-07T09:08:49;6.53;;;4.10;;
2972;SDS011;1496;51.404;7.232;2023-09-07T09:11:19;5.50;;;3.70;;
2972;SDS011;1496;51.404;7.232;2023-09-07T09:13:45;4.07;;;3.50;;
2972;SDS011;1496;51.404;7.232;2023-09-07T09:16:12;6.67;;;3.43;;
2972;SDS011;1496;51.404;7.232;2023-09-07T09:18:46;5.60;;;4.50;;
2972;SDS011;1496;51.404;7.232;2023-09-07T09:21:17;7.20;;;3.73;;
2972;SDS011;1496;51.404;7.232;2023-09-07T09:23:54;3.67;;;3.00;;
2972;SDS011;1496;51.404;7.232;2023-09-07T09:26:21;6.20;;;4.27;;
2972;SDS011;1496;51.404;7.232;2023-09-07T09:28:48;4.33;;;3.90;;
2972;SDS011;1496;51.404;7.232;2023-09-07T09:31:17;6.50;;;3.90;;
2972;SDS011;1496;51.404;7.232;2023-09-07T09:33:47;5.33;;;3.70;;
2972;SDS011;1496;51.404;7.232;2023-09-07T09:36:13;5.63;;;3.90;;
2972;SDS011;1496;51.404;7.232;2023-09-07T09:38:46;4.63;;;3.80;;
2972;SDS011;1496;51.404;7.232;2023-09-07T09:41:16;6.87;;;3.67;;
2972;SDS011;1496;51.404;7.232;2023-09-07T09:43:42;5.83;;;4.30;;
2972;SDS011;1496;51.404;7.232;2023-09-07T09:46:10;9.60;;;4.60;;
2972;SDS011;1496;51.404;7.232;2023-09-07T09:48:37;6.87;;;4.10;;
2972;SDS011;1496;51.404;7.232;2023-09-07T09:51:04;9.63;;;4.50;;
2972;SDS011;1496;51.404;7.232;2023-09-07T09:53:31;6.10;;;4.63;;
2972;SDS011;1496;51.404;7.232;2023-09-07T09:55:57;6.43;;;4.80;;
2972;SDS011;1496;51.404;7.232;2023-09-07T09:58:22;5.50;;;4.20;;
2972;SDS011;1496;51.404;7.232;2023-09-07T10:00:50;5.30;;;4.23;;
2972;SDS011;1496;51.404;7.232;2023-09-07T10:03:24;4.87;;;4.13;;
2972;SDS011;1496;51.404;7.232;2023-09-07T10:08:50;5.13;;;4.50;;
2972;SDS011;1496;51.404;7.232;2023-09-07T10:11:31;6.47;;;4.77;;
2972;SDS011;1496;51.404;7.232;2023-09-07T10:13:58;6.80;;;4.47;;
2972;SDS011;1496;51.404;7.232;2023-09-07T10:16:24;5.67;;;4.40;;
2972;SDS011;1496;51.404;7.232;2023-09-07T10:18:52;4.33;;;3.93;;
2972;SDS011;1496;51.404;7.232;2023-09-07T10:21:18;4.87;;;4.20;;
2972;SDS011;1496;51.404;7.232;2023-09-07T10:23:44;10.70;;;5.50;;
2972;SDS011;1496;51.404;7.232;2023-09-07T10:26:15;6.07;;;4.30;;
2972;SDS011;1496;51.404;7.232;2023-09-07T10:28:42;6.27;;;4.30;;
2972;SDS011;1496;51.404;7.232;2023-09-07T10:31:18;6.30;;;3.67;;
2972;SDS011;1496;51.404;7.232;2023-09-07T10:33:45;4.80;;;3.73;;
2972;SDS011;1496;51.404;7.232;2023-09-07T10:36:21;5.20;;;3.60;;
2972;SDS011;1496;51.404;7.232;2023-09-07T10:38:49;4.20;;;3.67;;
2972;SDS011;1496;51.404;7.232;2023-09-07T10:41:17;3.70;;;3.40;;
2972;SDS011;1496;51.404;7.232;2023-09-07T10:43:46;3.93;;;3.53;;
2972;SDS011;1496;51.404;7.232;2023-09-07T10:46:20;5.10;;;3.63;;
2972;SDS011;1496;51.404;7.232;2023-09-07T10:48:49;4.67;;;3.37;;
2972;SDS011;1496;51.404;7.232;2023-09-07T10:51:16;5.20;;;3.70;;
2972;SDS011;1496;51.404;7.232;2023-09-07T10:53:43;4.03;;;3.33;;
2972;SDS011;1496;51.404;7.232;2023-09-07T10:56:08;4.37;;;3.43;;
2972;SDS011;1496;51.404;7.232;2023-09-07T10:58:35;6.90;;;3.77;;
2972;SDS011;1496;51.404;7.232;2023-09-07T11:01:05;6.43;;;3.70;;
2972;SDS011;1496;51.404;7.232;2023-09-07T11:03:31;3.80;;;2.70;;
2972;SDS011;1496;51.404;7.232;2023-09-07T11:06:18;5.10;;;3.57;;
2972;SDS011;1496;51.404;7.232;2023-09-07T11:08:44;3.60;;;3.30;;
2972;SDS011;1496;51.404;7.232;2023-09-07T11:11:11;5.10;;;3.93;;
2972;SDS011;1496;51.404;7.232;2023-09-07T11:13:38;4.90;;;4.00;;
2972;SDS011;1496;51.404;7.232;2023-09-07T11:16:06;4.40;;;3.83;;
2972;SDS011;1496;51.404;7.232;2023-09-07T11:18:33;7.30;;;4.20;;
2972;SDS011;1496;51.404;7.232;2023-09-07T11:21:01;5.90;;;4.17;;
2972;SDS011;1496;51.404;7.232;2023-09-07T11:23:29;4.43;;;3.83;;
2972;SDS011;1496;51.404;7.232;2023-09-07T11:26:03;7.20;;;4.07;;
2972;SDS011;1496;51.404;7.232;2023-09-07T11:28:30;5.30;;;4.03;;
2972;SDS011;1496;51.404;7.232;2023-09-07T11:30:57;5.73;;;4.20;;
2972;SDS011;1496;51.404;7.232;2023-09-07T11:33:24;5.33;;;3.97;;
2972;SDS011;1496;51.404;7.232;2023-09-07T11:35:50;5.13;;;4.63;;
2972;SDS011;1496;51.404;7.232;2023-09-07T11:38:17;5.93;;;3.77;;
2972;SDS011;1496;51.404;7.232;2023-09-07T11:40:43;5.50;;;3.83;;
2972;SDS011;1496;51.404;7.232;2023-09-07T11:43:13;5.60;;;3.97;;
2972;SDS011;1496;51.404;7.232;2023-09-07T11:45:45;4.47;;;3.73;;
2972;SDS011;1496;51.404;7.232;2023-09-07T11:48:11;5.83;;;3.93;;
2972;SDS011;1496;51.404;7.232;2023-09-07T11:50:37;4.10;;;3.40;;
2972;SDS011;1496;51.404;7.232;2023-09-07T11:53:05;5.50;;;3.90;;
2972;SDS011;1496;51.404;7.232;2023-09-07T11:55:32;6.03;;;4.20;;
2972;SDS011;1496;51.404;7.232;2023-09-07T11:57:59;4.03;;;3.60;;
2972;SDS011;1496;51.404;7.232;2023-09-07T12:00:29;4.90;;;4.27;;
2972;SDS011;1496;51.404;7.232;2023-09-07T12:02:56;7.00;;;3.90;;
2972;SDS011;1496;51.404;7.232;2023-09-07T12:05:22;4.03;;;3.63;;
2972;SDS011;1496;51.404;7.232;2023-09-07T12:07:49;5.03;;;4.30;;
2972;SDS011;1496;51.404;7.232;2023-09-07T12:10:15;3.90;;;3.33;;
2972;SDS011;1496;51.404;7.232;2023-09-07T12:12:40;5.23;;;4.23;;
2972;SDS011;1496;51.404;7.232;2023-09-07T12:15:07;5.00;;;4.50;;
2972;SDS011;1496;51.404;7.232;2023-09-07T12:17:33;5.33;;;4.83;;
2972;SDS011;1496;51.404;7.232;2023-09-07T12:20:00;5.33;;;4.63;;
2972;SDS011;1496;51.404;7.232;2023-09-07T12:22:26;4.13;;;3.43;;
2972;SDS011;1496;51.404;7.232;2023-09-07T12:24:52;9.17;;;4.23;;
2972;SDS011;1496;51.404;7.232;2023-09-07T12:27:18;4.03;;;3.53;;
2972;SDS011;1496;51.404;7.232;2023-09-07T12:29:44;6.53;;;3.97;;
2972;SDS011;1496;51.404;7.232;2023-09-07T12:32:10;8.40;;;4.33;;
2972;SDS011;1496;51.404;7.232;2023-09-07T12:34:36;4.73;;;3.63;;
2972;SDS011;1496;51.404;7.232;2023-09-07T12:37:02;6.30;;;4.30;;
2972;SDS011;1496;51.404;7.232;2023-09-07T12:39:31;5.67;;;4.40;;
2972;SDS011;1496;51.404;7.232;2023-09-07T12:41:57;7.70;;;4.17;;
2972;SDS011;1496;51.404;7.232;2023-09-07T12:44:22;4.43;;;4.03;;
2972;SDS011;1496;51.404;7.232;2023-09-07T12:46:48;6.77;;;3.77;;
2972;SDS011;1496;51.404;7.232;2023-09-07T12:49:14;4.20;;;3.57;;
2972;SDS011;1496;51.404;7.232;2023-09-07T12:51:42;4.80;;;4.17;;
2972;SDS011;1496;51.404;7.232;2023-09-07T12:54:08;5.60;;;4.63;;
2972;SDS011;1496;51.404;7.232;2023-09-07T12:56:33;5.70;;;4.10;;
2972;SDS011;1496;51.404;7.232;2023-09-07T12:59:00;4.93;;;4.07;;
2972;SDS011;1496;51.404;7.232;2023-09-07T13:01:27;6.53;;;4.27;;
2972;SDS011;1496;51.404;7.232;2023-09-07T13:03:53;5.87;;;4.23;;
2972;SDS011;1496;51.404;7.232;2023-09-07T13:06:19;4.60;;;4.20;;
2972;SDS011;1496;51.404;7.232;2023-09-07T13:08:45;5.30;;;3.97;;
2972;SDS011;1496;51.404;7.232;2023-09-07T13:11:11;9.63;;;4.23;;
2972;SDS011;1496;51.404;7.232;2023-09-07T13:13:36;4.40;;;4.00;;
2972;SDS011;1496;51.404;7.232;2023-09-07T13:16:03;4.77;;;4.00;;
2972;SDS011;1496;51.404;7.232;2023-09-07T13:18:29;6.30;;;4.40;;
2972;SDS011;1496;51.404;7.232;2023-09-07T13:20:56;4.80;;;4.30;;
2972;SDS011;1496;51.404;7.232;2023-09-07T13:23:25;4.67;;;4.20;;
2972;SDS011;1496;51.404;7.232;2023-09-07T13:25:51;5.60;;;4.10;;
2972;SDS011;1496;51.404;7.232;2023-09-07T13:28:17;8.83;;;4.33;;
2972;SDS011;1496;51.404;7.232;2023-09-07T13:30:43;6.20;;;4.37;;
2972;SDS011;1496;51.404;7.232;2023-09-07T13:33:09;5.37;;;4.17;;
2972;SDS011;1496;51.404;7.232;2023-09-07T13:35:34;4.97;;;3.77;;
2972;SDS011;1496;51.404;7.232;2023-09-07T13:38:00;5.23;;;4.47;;
2972;SDS011;1496;51.404;7.232;2023-09-07T13:40:25;5.40;;;3.80;;
2972;SDS011;1496;51.404;7.232;2023-09-07T13:42:54;7.40;;;4.40;;
2972;SDS011;1496;51.404;7.232;2023-09-07T13:45:21;7.07;;;3.63;;
2972;SDS011;1496;51.404;7.232;2023-09-07T13:47:47;5.20;;;4.30;;
2972;SDS011;1496;51.404;7.232;2023-09-07T13:50:12;5.27;;;3.80;;
2972;SDS011;1496;51.404;7.232;2023-09-07T13:52:38;5.00;;;3.90;;
2972;SDS011;1496;51.404;7.232;2023-09-07T13:55:04;6.13;;;4.40;;
2972;SDS011;1496;51.404;7.232;2023-09-07T13:57:32;5.63;;;4.20;;
2972;SDS011;1496;51.404;7.232;2023-09-07T13:59:58;5.57;;;4.00;;
2972;SDS011;1496;51.404;7.232;2023-09-07T14:02:24;4.83;;;4.33;;
2972;SDS011;1496;51.404;7.232;2023-09-07T14:04:49;8.50;;;3.97;;
2972;SDS011;1496;51.404;7.232;2023-09-07T14:07:15;4.17;;;3.53;;
2972;SDS011;1496;51.404;7.232;2023-09-07T14:09:41;6.60;;;4.13;;
2972;SDS011;1496;51.404;7.232;2023-09-07T14:12:07;4.40;;;4.00;;
2972;SDS011;1496;51.404;7.232;2023-09-07T14:14:32;4.37;;;3.63;;
2972;SDS011;1496;51.404;7.232;2023-09-07T14:16:58;5.47;;;4.00;;
2972;SDS011;1496;51.404;7.232;2023-09-07T14:19:25;4.60;;;3.77;;
2972;SDS011;1496;51.404;7.232;2023-09-07T14:21:55;6.93;;;5.00;;
2972;SDS011;1496;51.404;7.232;2023-09-07T14:24:22;5.20;;;3.83;;
2972;SDS011;1496;51.404;7.232;2023-09-07T14:26:48;5.20;;;4.10;;
2972;SDS011;1496;51.404;7.232;2023-09-07T14:29:17;4.70;;;3.90;;
2972;SDS011;1496;51.404;7.232;2023-09-07T14:31:43;5.50;;;4.57;;
2972;SDS011;1496;51.404;7.232;2023-09-07T14:34:09;5.30;;;4.23;;
2972;SDS011;1496;51.404;7.232;2023-09-07T14:36:36;4.70;;;4.20;;
2972;SDS011;1496;51.404;7.232;2023-09-07T14:39:01;4.53;;;3.97;;
2972;SDS011;1496;51.404;7.232;2023-09-07T14:41:28;4.17;;;3.70;;
2972;SDS011;1496;51.404;7.232;2023-09-07T14:43:55;5.73;;;4.47;;
2972;SDS011;1496;51.404;7.232;2023-09-07T14:46:21;5.80;;;4.47;;
2972;SDS011;1496;51.404;7.232;2023-09-07T14:48:49;5.67;;;3.90;;
2972;SDS011;1496;51.404;7.232;2023-09-07T14:51:15;4.80;;;4.27;;
2972;SDS011;1496;51.404;7.232;2023-09-07T14:53:41;4.27;;;3.10;;
2972;SDS011;1496;51.404;7.232;2023-09-07T14:56:06;4.90;;;4.40;;
2972;SDS011;1496;51.404;7.232;2023-09-07T14:58:32;5.40;;;3.93;;
2972;SDS011;1496;51.404;7.232;2023-09-07T15:00:58;5.30;;;3.87;;
2972;SDS011;1496;51.404;7.232;2023-09-07T15:03:23;3.87;;;3.27;;
2972;SDS011;1496;51.404;7.232;2023-09-07T15:05:49;7.47;;;3.73;;
2972;SDS011;1496;51.404;7.232;2023-09-07T15:08:15;4.57;;;3.50;;
2972;SDS011;1496;51.404;7.232;2023-09-07T15:10:41;5.30;;;4.10;;
2972;SDS011;1496;51.404;7.232;2023-09-07T15:13:07;5.43;;;4.33;;
2972;SDS011;1496;51.404;7.232;2023-09-07T15:15:33;4.80;;;3.70;;